createdAt,value
2019-03-02T00:02:14.034Z,7.94
2019-03-02T00:04:45.891Z,8.02
2019-03-02T00:07:12.535Z,7.92
2019-03-02T00:09:41.311Z,7.99
2019-03-02T00:12:09.689Z,7.93
2019-03-02T00:14:38.317Z,7.90
2019-03-02T00:17:06.729Z,7.84
2019-03-02T00:19:35.127Z,7.84
2019-03-02T00:22:06.633Z,7.76
2019-03-02T00:24:33.646Z,8.07
2019-03-02T00:27:02.051Z,7.85
2019-03-02T00:29:30.443Z,7.83
2019-03-02T00:31:58.849Z,7.88
2019-03-02T00:34:46.909Z,7.83
2019-03-02T00:37:15.333Z,7.83
2019-03-02T00:39:43.960Z,7.79
2019-03-02T00:42:13.534Z,7.86
2019-03-02T00:44:42.481Z,7.86
2019-03-02T00:47:11.153Z,7.80
2019-03-02T00:49:39.532Z,7.75
2019-03-02T00:52:07.942Z,7.77
2019-03-02T00:54:36.585Z,7.74
2019-03-02T00:57:05.220Z,7.70
2019-03-02T00:59:35.789Z,7.76
2019-03-02T01:02:05.542Z,7.71
2019-03-02T01:04:34.405Z,7.70
2019-03-02T01:07:03.086Z,7.78
2019-03-02T01:09:31.774Z,7.68
2019-03-02T01:12:00.459Z,7.62
2019-03-02T01:14:31.854Z,7.60
2019-03-02T01:16:59.259Z,7.65
2019-03-02T01:19:27.948Z,7.62
2019-03-02T01:21:56.369Z,7.77
2019-03-02T01:24:24.744Z,7.76
2019-03-02T01:26:55.617Z,7.75
2019-03-02T01:29:23.534Z,7.66
2019-03-02T01:31:51.923Z,7.66
2019-03-02T01:34:20.551Z,7.56
2019-03-02T01:36:48.956Z,7.67
2019-03-02T01:39:17.644Z,7.73
2019-03-02T01:41:46.032Z,7.66
2019-03-02T01:44:16.377Z,7.72
2019-03-02T01:46:44.554Z,7.70
2019-03-02T01:49:13.204Z,7.62
2019-03-02T01:51:41.889Z,7.63
2019-03-02T01:54:10.576Z,7.55
2019-03-02T01:56:41.392Z,7.58
2019-03-02T01:59:49.158Z,7.58
2019-03-02T02:02:17.544Z,7.60
2019-03-02T02:04:46.280Z,7.63
2019-03-02T02:07:18.003Z,7.57
2019-03-02T02:09:45.084Z,7.57
2019-03-02T02:12:13.883Z,7.53
2019-03-02T02:14:42.555Z,7.57
2019-03-02T02:17:11.248Z,7.51
2019-03-02T02:19:39.719Z,7.54
2019-03-02T02:22:08.321Z,7.55
2019-03-02T02:24:36.962Z,7.50
2019-03-02T02:27:05.348Z,7.52
2019-03-02T02:29:33.740Z,7.53
2019-03-02T02:32:02.390Z,7.50
2019-03-02T02:34:30.787Z,7.57
2019-03-02T02:37:00.169Z,7.47
2019-03-02T02:39:33.550Z,7.53
2019-03-02T02:42:00.075Z,7.48
2019-03-02T02:44:49.149Z,7.39
2019-03-02T02:47:17.549Z,7.36
2019-03-02T02:49:49.195Z,7.38
2019-03-02T02:52:16.306Z,7.41
2019-03-02T02:54:44.680Z,7.43
2019-03-02T02:57:13.359Z,7.37
2019-03-02T02:59:41.765Z,7.40
2019-03-02T03:02:11.970Z,7.29
2019-03-02T03:04:40.546Z,7.34
2019-03-02T03:07:12.362Z,7.47
2019-03-02T03:12:28.417Z,7.27
2019-03-02T03:14:58.511Z,7.39
2019-03-02T03:17:28.052Z,7.32
2019-03-02T03:19:57.539Z,7.36
2019-03-02T03:22:26.230Z,7.46
2019-03-02T03:25:17.956Z,7.33
2019-03-02T03:27:47.624Z,7.40
2019-03-02T03:30:54.352Z,7.45
2019-03-02T03:33:22.752Z,7.46
2019-03-02T03:35:51.638Z,7.28
2019-03-02T03:38:40.872Z,7.30
2019-03-02T03:41:09.506Z,7.26
2019-03-02T03:43:42.464Z,7.33
2019-03-02T03:46:08.280Z,7.37
2019-03-02T03:48:36.956Z,7.26
2019-03-02T03:51:05.356Z,7.30
2019-03-02T03:53:34.036Z,7.14
2019-03-02T03:56:43.977Z,7.23
2019-03-02T03:59:14.156Z,7.18
2019-03-02T04:01:42.705Z,7.13
2019-03-02T04:04:11.467Z,7.04
2019-03-02T04:06:40.164Z,7.15
2019-03-02T04:09:48.483Z,7.22
2019-03-02T04:12:19.914Z,7.18
2019-03-02T04:14:47.217Z,7.17
2019-03-02T04:17:15.961Z,7.23
2019-03-02T04:19:44.343Z,7.26
2019-03-02T04:22:52.650Z,7.21
2019-03-02T04:25:21.045Z,7.28
2019-03-02T04:27:54.159Z,7.20
2019-03-02T04:30:39.189Z,7.15
2019-03-02T04:33:07.877Z,7.21
2019-03-02T04:35:36.266Z,7.23
2019-03-02T04:38:24.292Z,7.22
2019-03-02T04:40:52.748Z,7.22
2019-03-02T04:43:21.462Z,7.23
2019-03-02T04:45:50.151Z,7.24
2019-03-02T04:48:18.537Z,7.18
2019-03-02T04:50:46.939Z,7.26
2019-03-02T04:53:16.595Z,7.24
2019-03-02T04:55:48.613Z,7.32
2019-03-02T04:58:16.445Z,7.26
2019-03-02T05:00:44.860Z,7.22
2019-03-02T05:03:13.244Z,7.36
2019-03-02T05:05:43.428Z,7.39
2019-03-02T05:08:11.832Z,7.34
2019-03-02T05:10:40.286Z,7.27
2019-03-02T05:13:08.688Z,7.31
2019-03-02T05:15:37.073Z,7.26
2019-03-02T05:18:05.461Z,7.15
2019-03-02T05:20:34.099Z,7.21
2019-03-02T05:23:02.476Z,7.23
2019-03-02T05:25:30.880Z,7.31
2019-03-02T05:27:59.557Z,7.29
2019-03-02T05:30:30.515Z,7.31
2019-03-02T05:32:58.362Z,7.25
2019-03-02T05:35:27.054Z,7.31
2019-03-02T05:37:55.456Z,7.21
2019-03-02T05:40:24.391Z,7.22
2019-03-02T05:42:53.954Z,7.22
2019-03-02T05:46:02.255Z,7.28
2019-03-02T05:48:30.652Z,7.18
2019-03-02T05:50:59.296Z,7.17
2019-03-02T05:53:30.248Z,7.36
2019-03-02T05:55:57.811Z,7.43
2019-03-02T05:58:26.255Z,7.29
2019-03-02T06:00:54.649Z,7.30
2019-03-02T06:03:23.045Z,7.23
2019-03-02T06:05:51.435Z,7.35
2019-03-02T06:08:20.096Z,7.33
2019-03-02T06:10:48.488Z,7.29
2019-03-02T06:13:18.833Z,7.25
2019-03-02T06:15:46.996Z,7.29
2019-03-02T06:18:15.383Z,7.30
2019-03-02T06:20:44.718Z,7.32
2019-03-02T06:23:13.896Z,7.39
2019-03-02T06:25:42.280Z,7.30
2019-03-02T06:28:10.677Z,7.23
2019-03-02T06:30:40.574Z,7.19
2019-03-02T06:33:09.405Z,7.11
2019-03-02T06:35:37.846Z,7.08
2019-03-02T06:38:06.238Z,7.13
2019-03-02T06:40:34.641Z,7.13
2019-03-02T06:43:03.024Z,7.16
2019-03-02T06:45:31.733Z,7.18
2019-03-02T06:48:00.404Z,7.31
2019-03-02T06:50:31.787Z,7.25
2019-03-02T06:53:01.444Z,7.36
2019-03-02T06:55:29.337Z,7.30
2019-03-02T06:57:57.724Z,7.26
2019-03-02T07:00:26.349Z,7.22
2019-03-02T07:02:55.082Z,7.27
2019-03-02T07:05:23.464Z,7.28
2019-03-02T07:07:53.639Z,7.24
2019-03-02T07:10:41.924Z,7.24
2019-03-02T07:15:59.661Z,7.23
2019-03-02T07:21:17.426Z,7.31
2019-03-02T07:23:45.818Z,7.27
2019-03-02T07:26:33.839Z,7.28
2019-03-02T07:29:02.472Z,7.23
2019-03-02T07:31:30.852Z,7.40
2019-03-02T07:33:59.258Z,7.34
2019-03-02T07:36:33.824Z,7.30
2019-03-02T07:38:58.084Z,7.45
2019-03-02T07:41:26.777Z,7.55
2019-03-02T07:43:55.460Z,7.53
2019-03-02T07:46:23.867Z,7.52
2019-03-02T07:48:52.251Z,7.36
2019-03-02T07:51:20.636Z,7.69
2019-03-02T07:53:49.040Z,7.63
2019-03-02T07:56:17.764Z,7.62
2019-03-02T07:58:46.458Z,7.78
2019-03-02T08:01:16.740Z,7.83
2019-03-02T08:03:44.964Z,7.90
2019-03-02T08:06:13.637Z,7.89
2019-03-02T08:08:42.042Z,7.86
2019-03-02T08:11:13.255Z,8.01
2019-03-02T08:13:40.539Z,7.96
2019-03-02T08:16:08.940Z,8.11
2019-03-02T08:18:37.324Z,8.09
2019-03-02T08:21:05.718Z,8.15
2019-03-02T08:23:34.120Z,8.14
2019-03-02T08:26:02.500Z,8.19
2019-03-02T08:28:30.894Z,8.00
2019-03-02T08:30:59.298Z,8.02
2019-03-02T08:33:30.595Z,7.91
2019-03-02T08:35:58.036Z,7.95
2019-03-02T08:38:26.444Z,8.03
2019-03-02T08:40:56.280Z,8.05
2019-03-02T08:43:25.497Z,8.05
2019-03-02T08:45:54.120Z,7.97
2019-03-02T08:48:22.831Z,8.02
2019-03-02T08:50:53.097Z,8.14
2019-03-02T08:53:21.743Z,8.24
2019-03-02T08:55:51.539Z,8.19
2019-03-02T08:58:19.920Z,8.35
2019-03-02T09:00:48.621Z,8.37
2019-03-02T09:03:37.270Z,8.58
2019-03-02T09:06:11.460Z,8.72
2019-03-02T09:08:37.205Z,8.83
2019-03-02T09:11:25.080Z,8.79
2019-03-02T09:13:53.481Z,8.92
2019-03-02T09:16:41.900Z,9.11
2019-03-02T09:19:11.643Z,9.11
2019-03-02T09:21:40.364Z,9.05
2019-03-02T09:24:09.424Z,8.96
2019-03-02T09:26:58.832Z,8.87
2019-03-02T09:29:27.516Z,8.80
2019-03-02T09:31:55.917Z,9.03
2019-03-02T09:34:24.535Z,9.21
2019-03-02T09:36:52.921Z,9.11
2019-03-02T09:39:23.649Z,9.24
2019-03-02T09:41:51.754Z,9.12
2019-03-02T09:44:20.154Z,9.15
2019-03-02T09:46:48.536Z,9.16
2019-03-02T09:49:16.918Z,9.15
2019-03-02T09:51:48.240Z,9.28
2019-03-02T09:54:15.690Z,9.29
2019-03-02T09:56:45.690Z,9.60
2019-03-02T09:59:14.077Z,9.68
2019-03-02T10:01:42.459Z,9.56
2019-03-02T10:04:11.167Z,9.52
2019-03-02T10:06:39.609Z,9.55
2019-03-02T10:09:27.699Z,9.61
2019-03-02T10:11:56.373Z,9.77
2019-03-02T10:15:04.676Z,9.94
2019-03-02T10:17:34.854Z,9.81
2019-03-02T10:22:58.387Z,10.10
2019-03-02T10:25:31.853Z,9.99
2019-03-02T10:27:57.528Z,9.99
2019-03-02T10:30:27.541Z,10.02
2019-03-02T10:32:57.503Z,10.02
2019-03-02T10:35:26.231Z,10.07
2019-03-02T10:37:55.018Z,9.95
2019-03-02T10:40:23.605Z,9.97
2019-03-02T10:42:53.819Z,9.84
2019-03-02T10:46:02.366Z,9.98
2019-03-02T10:48:31.027Z,10.03
2019-03-02T10:51:02.313Z,9.97
2019-03-02T10:53:29.540Z,9.96
2019-03-02T10:55:58.171Z,10.14
2019-03-02T10:58:26.560Z,9.91
2019-03-02T11:00:55.038Z,10.23
2019-03-02T11:03:23.416Z,10.24
2019-03-02T11:06:10.932Z,10.16
2019-03-02T11:09:03.839Z,10.29
2019-03-02T11:14:27.768Z,10.75
2019-03-02T11:17:19.661Z,10.34
2019-03-02T11:20:05.974Z,10.45
2019-03-02T11:22:53.713Z,10.24
2019-03-02T11:25:41.536Z,10.43
2019-03-02T11:28:29.275Z,10.60
2019-03-02T11:33:52.545Z,10.43
2019-03-02T11:39:53.138Z,10.90
2019-03-02T11:45:49.300Z,11.12
2019-03-02T11:48:37.044Z,11.55
2019-03-02T11:51:27.092Z,11.39
2019-03-02T11:57:03.482Z,11.92
2019-03-02T11:59:50.981Z,11.64
2019-03-02T12:02:38.744Z,11.71
2019-03-02T12:05:47.038Z,11.71
2019-03-02T12:08:34.792Z,11.72
2019-03-02T12:11:22.349Z,11.85
2019-03-02T12:14:10.170Z,11.73
2019-03-02T12:19:48.185Z,11.33
2019-03-02T12:22:35.724Z,11.89
2019-03-02T12:30:57.210Z,12.02
2019-03-02T12:33:44.711Z,12.10
2019-03-02T12:36:32.227Z,11.91
2019-03-02T12:39:23.789Z,11.53
2019-03-02T12:47:20.240Z,11.67
2019-03-02T12:50:08.025Z,11.62
2019-03-02T12:55:34.697Z,11.70
2019-03-02T13:01:11.287Z,11.64
2019-03-02T13:06:47.885Z,11.98
2019-03-02T13:09:36.961Z,12.28
2019-03-02T13:12:25.125Z,12.47
2019-03-02T13:18:01.957Z,12.52
2019-03-02T13:23:38.955Z,12.25
2019-03-02T13:26:27.785Z,12.24
2019-03-02T13:31:50.505Z,12.11
2019-03-02T13:34:38.271Z,12.40
2019-03-02T13:37:45.132Z,12.37
2019-03-02T13:40:33.763Z,12.61
2019-03-02T13:43:24.671Z,12.35
2019-03-02T13:51:40.086Z,12.31
2019-03-02T13:54:27.608Z,12.35
2019-03-02T13:57:15.130Z,12.19
2019-03-02T14:00:03.502Z,12.17
2019-03-02T14:02:52.342Z,12.14
2019-03-02T14:05:41.989Z,12.40
2019-03-02T14:16:19.770Z,12.21
2019-03-02T14:21:56.609Z,11.92
2019-03-02T14:24:46.900Z,11.97
2019-03-02T14:30:08.976Z,11.69
2019-03-02T14:32:56.716Z,11.56
2019-03-02T14:38:20.234Z,11.66
2019-03-02T14:41:09.033Z,11.64
2019-03-02T14:43:57.214Z,11.61
2019-03-02T14:46:46.022Z,11.54
2019-03-02T14:49:33.769Z,11.41
2019-03-02T14:55:10.618Z,11.30
2019-03-02T15:00:47.209Z,11.02
2019-03-02T15:03:34.711Z,11.05
2019-03-02T15:06:22.465Z,11.02
2019-03-02T15:11:59.302Z,11.05
2019-03-02T15:14:46.809Z,11.05
2019-03-02T15:17:34.519Z,11.30
2019-03-02T15:23:44.101Z,11.43
2019-03-02T15:29:20.692Z,11.60
2019-03-02T15:34:58.884Z,11.59
2019-03-02T15:37:46.761Z,11.84
2019-03-02T15:40:34.348Z,12.05
2019-03-02T15:46:10.946Z,11.75
2019-03-02T15:48:59.705Z,11.74
2019-03-02T15:51:49.460Z,11.53
2019-03-02T15:54:36.996Z,11.42
2019-03-02T15:57:24.756Z,11.38
2019-03-02T16:00:13.445Z,11.30
2019-03-02T16:03:01.801Z,11.18
2019-03-02T16:05:49.318Z,11.12
2019-03-02T16:08:37.106Z,11.09
2019-03-02T16:11:32.485Z,10.98
2019-03-02T16:19:28.985Z,10.99
2019-03-02T16:22:34.259Z,11.04
2019-03-02T16:25:21.814Z,10.92
2019-03-02T16:28:09.540Z,10.94
2019-03-02T16:33:36.536Z,10.94
2019-03-02T16:36:24.352Z,10.81
2019-03-02T16:39:11.920Z,10.83
2019-03-02T16:41:59.732Z,10.85
2019-03-02T16:47:23.157Z,10.86
2019-03-02T16:50:12.943Z,10.76
2019-03-02T16:53:22.567Z,10.73
2019-03-02T16:58:59.271Z,10.69
2019-03-02T17:01:46.933Z,10.70
2019-03-02T17:04:34.436Z,10.77
2019-03-02T17:07:23.286Z,10.54
2019-03-02T17:10:11.555Z,10.39
2019-03-02T17:18:25.335Z,10.12
2019-03-02T17:21:12.524Z,10.05
2019-03-02T17:24:00.036Z,9.96
2019-03-02T17:26:49.446Z,9.89
2019-03-02T17:29:36.824Z,9.83
2019-03-02T17:32:45.130Z,9.87
2019-03-02T17:35:32.983Z,9.76
2019-03-02T17:38:44.071Z,9.77
2019-03-02T17:41:30.796Z,9.83
2019-03-02T17:44:18.719Z,9.77
2019-03-02T17:47:08.045Z,9.71
2019-03-02T17:49:55.739Z,9.80
2019-03-02T17:55:18.738Z,9.71
2019-03-02T18:03:34.750Z,9.87
2019-03-02T18:06:23.874Z,9.88
2019-03-02T18:11:51.169Z,9.79
2019-03-02T18:14:38.707Z,9.89
2019-03-02T18:17:26.440Z,9.88
2019-03-02T18:19:55.107Z,9.84
2019-03-02T18:22:23.491Z,9.87
2019-03-02T18:25:12.218Z,9.85
2019-03-02T18:27:41.605Z,9.86
2019-03-02T18:30:50.144Z,9.83
2019-03-02T18:33:37.641Z,9.63
2019-03-02T18:36:09.809Z,9.69
2019-03-02T18:38:36.911Z,9.72
2019-03-02T18:41:05.698Z,9.66
2019-03-02T18:43:34.338Z,9.64
2019-03-02T18:46:02.973Z,9.72
2019-03-02T18:48:50.484Z,9.66
2019-03-02T18:51:40.919Z,9.69
2019-03-02T18:54:27.387Z,9.70
2019-03-02T18:56:55.779Z,9.78
2019-03-02T18:59:24.154Z,9.80
2019-03-02T19:01:52.547Z,9.73
2019-03-02T19:04:40.266Z,9.70
2019-03-02T19:07:08.659Z,9.68
2019-03-02T19:09:37.328Z,9.70
2019-03-02T19:12:05.728Z,9.76
2019-03-02T19:14:34.154Z,9.62
2019-03-02T19:17:22.130Z,9.65
2019-03-02T19:19:50.513Z,9.63
2019-03-02T19:22:19.186Z,9.72
2019-03-02T19:24:47.873Z,9.64
2019-03-02T19:27:16.560Z,9.72
2019-03-02T19:29:44.961Z,9.60
2019-03-02T19:32:13.340Z,9.62
2019-03-02T19:34:41.727Z,9.58
2019-03-02T19:37:10.116Z,9.64
2019-03-02T19:39:38.767Z,9.64
2019-03-02T19:42:07.445Z,9.60
2019-03-02T19:44:36.136Z,9.56
2019-03-02T19:47:04.520Z,9.51
2019-03-02T19:49:33.376Z,9.48
2019-03-02T19:52:02.079Z,9.42
2019-03-02T19:54:30.978Z,9.44
2019-03-02T19:56:59.391Z,9.33
2019-03-02T19:59:27.800Z,9.36
2019-03-02T20:01:56.246Z,9.34
2019-03-02T20:04:24.864Z,9.32
2019-03-02T20:06:53.263Z,9.19
2019-03-02T20:10:01.791Z,9.21
2019-03-02T20:12:30.183Z,9.20
2019-03-02T20:14:58.635Z,9.21
2019-03-02T20:17:27.030Z,9.21
2019-03-02T20:19:55.725Z,9.20
2019-03-02T20:22:24.346Z,9.15
2019-03-02T20:24:52.737Z,9.09
2019-03-02T20:27:21.114Z,9.15
2019-03-02T20:29:49.853Z,9.12
2019-03-02T20:32:18.543Z,9.00
2019-03-02T20:34:47.227Z,8.98
2019-03-02T20:37:15.916Z,8.92
2019-03-02T20:39:44.703Z,8.89
2019-03-02T20:42:13.108Z,8.80
2019-03-02T20:44:41.491Z,8.69
2019-03-02T20:47:10.147Z,8.71
2019-03-02T20:49:38.848Z,8.85
2019-03-02T20:52:07.219Z,8.88
2019-03-02T20:54:35.614Z,8.93
2019-03-02T20:57:03.996Z,8.92
2019-03-02T20:59:32.380Z,8.93
2019-03-02T21:02:00.843Z,8.92
2019-03-02T21:04:29.652Z,8.92
2019-03-02T21:06:58.109Z,8.97
2019-03-02T21:09:26.491Z,9.00
2019-03-02T21:11:54.894Z,8.99
2019-03-02T21:14:23.273Z,9.04
2019-03-02T21:16:51.918Z,9.01
2019-03-02T21:19:40.064Z,9.03
2019-03-02T21:22:08.447Z,9.00
2019-03-02T21:24:37.178Z,9.04
2019-03-02T21:27:05.647Z,9.02
2019-03-02T21:29:34.268Z,9.03
2019-03-02T21:32:02.978Z,9.02
2019-03-02T21:34:31.662Z,9.08
2019-03-02T21:37:00.351Z,9.02
2019-03-02T21:39:28.732Z,9.08
2019-03-02T21:41:57.111Z,9.11
2019-03-02T21:44:25.798Z,9.12
2019-03-02T21:46:54.175Z,9.09
2019-03-02T21:49:22.569Z,9.09
2019-03-02T21:52:10.594Z,9.11
2019-03-02T21:54:38.987Z,9.11
2019-03-02T21:57:07.366Z,9.13
2019-03-02T21:59:35.746Z,9.11
2019-03-02T22:02:04.214Z,9.15
2019-03-02T22:04:32.894Z,9.07
2019-03-02T22:07:01.307Z,9.11
2019-03-02T22:09:29.672Z,9.12
2019-03-02T22:11:58.053Z,9.07
2019-03-02T22:14:26.720Z,9.05
2019-03-02T22:16:55.102Z,9.01
2019-03-02T22:19:23.503Z,9.02
2019-03-02T22:22:11.229Z,8.99
2019-03-02T22:24:39.698Z,9.00
2019-03-02T22:27:08.084Z,8.97
2019-03-02T22:29:36.463Z,8.95
2019-03-02T22:32:04.859Z,9.00
2019-03-02T22:34:33.247Z,9.00
2019-03-02T22:37:01.647Z,8.96
2019-03-02T22:39:30.027Z,8.94
2019-03-02T22:41:58.406Z,8.97
2019-03-02T22:44:27.128Z,8.90
2019-03-02T22:46:55.809Z,8.93
2019-03-02T22:49:24.441Z,8.89
2019-03-02T22:51:52.818Z,8.88
2019-03-02T22:54:21.976Z,8.95
2019-03-02T22:57:09.753Z,8.88
2019-03-02T23:00:18.272Z,8.85
2019-03-02T23:02:45.747Z,8.88
2019-03-02T23:05:14.194Z,8.83
2019-03-02T23:07:42.597Z,8.84
2019-03-02T23:10:51.130Z,8.86
2019-03-02T23:13:20.082Z,8.81
2019-03-02T23:15:48.536Z,8.87
2019-03-02T23:18:36.272Z,8.87
2019-03-02T23:21:04.658Z,8.94
2019-03-02T23:23:33.054Z,8.94
2019-03-02T23:26:01.435Z,8.85
2019-03-02T23:28:30.063Z,8.91
2019-03-02T23:30:58.457Z,8.94
2019-03-02T23:33:26.836Z,8.89
2019-03-02T23:36:35.137Z,8.89
2019-03-02T23:42:11.858Z,8.91
2019-03-02T23:44:40.237Z,8.89
2019-03-02T23:47:08.926Z,8.94
2019-03-02T23:49:37.606Z,8.93
2019-03-02T23:52:06.055Z,8.87
2019-03-02T23:54:34.455Z,8.88
2019-03-02T23:57:02.834Z,8.95
2019-03-02T23:59:31.213Z,8.97
